Terminal Aerodrome Forecast
Issued by NWS Mt. Holly, NJ

Home | Current Version | Previous Version | Text Only | Print | Product List | Glossary On
Versions: 1 2 3 4 5 6 7 8 9 10 11 12 13 14 15 16 17 18 19 20 21 22 23
000
FTUS41 KPHI 051533 AAC
TAFRDG
TAF AMD
KRDG 051533Z 0516/0612 27005KT P6SM SCT030 SCT250
      TEMPO 0516/0518 OVC015
     FM051800 20005KT P6SM FEW050
     FM060000 VRB03KT P6SM BKN250
     FM060600 VRB02KT P6SM BKN200=

USA.gov is the U.S. government's official web portal to all federal, state and local government web resources and services.